createdAt,value
2019-04-22T00:02:11.886Z,15.93
2019-04-22T00:04:51.299Z,15.75
2019-04-22T00:07:36.213Z,18.17
2019-04-22T00:10:04.899Z,14.80
2019-04-22T00:12:42.631Z,20.43
2019-04-22T00:15:03.674Z,15.10
2019-04-22T00:20:10.173Z,21.57
2019-04-22T00:22:38.687Z,15.75
2019-04-22T00:25:14.516Z,15.57
2019-04-22T00:27:41.287Z,15.32
2019-04-22T00:30:16.561Z,16.87
2019-04-22T00:32:55.955Z,16.37
2019-04-22T00:35:29.354Z,14.87
2019-04-22T00:38:09.337Z,15.18
2019-04-22T00:40:34.015Z,16.77
2019-04-22T00:42:58.323Z,10.53
2019-04-22T00:45:33.382Z,16.33
2019-04-22T00:48:09.283Z,20.17
2019-04-22T00:50:30.135Z,16.35
2019-04-22T00:53:08.883Z,16.85
2019-04-22T00:55:32.686Z,14.93
2019-04-22T00:58:08.297Z,13.17
2019-04-22T01:00:40.965Z,17.98
2019-04-22T01:03:11.829Z,14.63
2019-04-22T01:05:46.874Z,16.03
2019-04-22T01:08:05.559Z,15.85
2019-04-22T01:10:39.071Z,16.75
2019-04-22T01:13:08.156Z,18.43
2019-04-22T01:15:45.009Z,16.75
2019-04-22T01:18:03.923Z,17.87
2019-04-22T01:21:02.198Z,12.30
2019-04-22T01:23:03.847Z,19.20
2019-04-22T01:25:40.377Z,19.30
2019-04-22T01:28:01.293Z,18.77
2019-04-22T01:30:27.894Z,18.27
2019-04-22T01:32:50.846Z,17.63
2019-04-22T01:35:31.127Z,18.80
2019-04-22T01:38:04.290Z,21.60
2019-04-22T01:40:45.761Z,17.70
2019-04-22T01:43:18.499Z,18.20
2019-04-22T01:46:08.553Z,16.43
2019-04-22T01:48:41.400Z,17.12
2019-04-22T01:51:01.347Z,21.83
2019-04-22T01:53:44.396Z,18.03
2019-04-22T01:56:05.455Z,19.30
2019-04-22T01:58:36.214Z,18.37
2019-04-22T02:01:04.591Z,22.93
2019-04-22T02:03:44.716Z,18.40
2019-04-22T02:06:13.692Z,16.42
2019-04-22T02:08:45.443Z,15.30
2019-04-22T02:11:17.696Z,16.30
2019-04-22T02:13:47.887Z,19.23
2019-04-22T02:16:15.163Z,18.23
2019-04-22T02:18:44.227Z,22.48
2019-04-22T02:21:17.795Z,19.70
2019-04-22T02:28:45.813Z,17.53
2019-04-22T02:31:25.915Z,19.10
2019-04-22T02:44:04.246Z,19.33
2019-04-22T02:51:22.122Z,24.53
2019-04-22T02:59:07.958Z,21.75
2019-04-22T03:11:50.088Z,18.62
2019-04-22T03:29:04.770Z,21.87
2019-04-22T03:32:33.108Z,23.77
2019-04-22T03:37:21.082Z,19.23
2019-04-22T03:42:06.976Z,23.80
2019-04-22T03:49:47.482Z,22.95
2019-04-22T03:52:10.739Z,19.62
2019-04-22T03:54:45.593Z,18.73
2019-04-22T03:59:54.059Z,24.57
2019-04-22T04:04:49.562Z,22.37
2019-04-22T04:09:48.927Z,26.17
2019-04-22T04:14:53.675Z,22.87
2019-04-22T04:17:45.887Z,19.75
2019-04-22T04:19:56.321Z,24.10
2019-04-22T04:22:20.982Z,17.33
2019-04-22T04:27:30.911Z,23.42
2019-04-22T04:29:54.476Z,17.07
2019-04-22T04:35:07.265Z,20.57
2019-04-22T04:39:57.963Z,19.77
2019-04-22T04:42:35.187Z,22.97
2019-04-22T04:45:11.030Z,23.30
2019-04-22T04:52:33.218Z,21.50
2019-04-22T04:57:28.367Z,18.15
2019-04-22T05:07:35.033Z,19.95
2019-04-22T05:09:56.875Z,20.15
2019-04-22T05:12:34.057Z,18.75
2019-04-22T05:14:54.957Z,19.77
2019-04-22T05:19:50.334Z,17.48
2019-04-22T05:22:23.158Z,18.67
2019-04-22T05:24:53.827Z,20.60
2019-04-22T05:27:29.371Z,19.63
2019-04-22T05:30:16.701Z,17.00
2019-04-22T05:32:17.663Z,19.03
2019-04-22T05:34:47.899Z,17.27
2019-04-22T05:37:20.593Z,22.70
2019-04-22T05:39:52.684Z,23.80
2019-04-22T05:42:17.862Z,18.63
2019-04-22T05:44:52.919Z,24.33
2019-04-22T05:47:19.447Z,18.60
2019-04-22T05:49:49.855Z,21.03
2019-04-22T05:52:20.647Z,15.90
2019-04-22T05:54:51.285Z,19.82
2019-04-22T05:57:19.785Z,20.70
2019-04-22T05:59:57.351Z,20.25
2019-04-22T06:02:33.350Z,16.65
2019-04-22T06:04:51.824Z,21.97
2019-04-22T06:07:22.634Z,22.07
2019-04-22T06:09:55.359Z,19.00
2019-04-22T06:12:17.102Z,25.10
2019-04-22T06:14:54.083Z,21.43
2019-04-22T06:17:24.834Z,19.90
2019-04-22T06:19:57.626Z,20.08
2019-04-22T06:25:00.793Z,23.22
2019-04-22T06:27:30.485Z,20.93
2019-04-22T06:29:55.316Z,19.92
2019-04-22T06:32:31.475Z,15.53
2019-04-22T06:35:15.057Z,20.25
2019-04-22T06:37:35.990Z,19.67
2019-04-22T06:40:01.088Z,20.70
2019-04-22T06:45:04.247Z,22.60
2019-04-22T06:47:47.342Z,17.07
2019-04-22T06:50:04.193Z,17.50
2019-04-22T06:52:32.156Z,17.73
2019-04-22T06:55:13.657Z,12.80
2019-04-22T06:57:34.762Z,17.67
2019-04-22T07:00:05.307Z,17.00
2019-04-22T07:02:45.085Z,8.43
2019-04-22T07:05:02.909Z,14.68
2019-04-22T07:07:31.495Z,18.17
2019-04-22T07:10:11.423Z,15.60
2019-04-22T07:15:02.976Z,17.67
2019-04-22T07:17:40.736Z,14.63
2019-04-22T07:20:04.338Z,13.85
2019-04-22T07:22:38.937Z,14.58
2019-04-22T07:25:06.187Z,5.27
2019-04-22T07:27:34.773Z,19.30
2019-04-22T07:30:09.323Z,15.93
2019-04-22T07:32:57.867Z,12.03
2019-04-22T07:35:07.871Z,15.27
2019-04-22T07:40:02.523Z,14.10
2019-04-22T07:42:36.845Z,12.47
2019-04-22T07:45:10.302Z,13.25
2019-04-22T07:47:38.245Z,11.18
2019-04-22T07:50:13.183Z,17.90
2019-04-22T07:52:38.840Z,14.97
2019-04-22T07:55:07.140Z,13.30
2019-04-22T07:57:39.267Z,15.47
2019-04-22T08:00:16.179Z,1.92
2019-04-22T08:02:44.386Z,11.67
2019-04-22T08:07:43.095Z,12.85
2019-04-22T08:10:18.912Z,7.60
2019-04-22T08:15:12.864Z,9.40
2019-04-22T08:17:55.103Z,14.97
2019-04-22T08:20:18.778Z,11.30
2019-04-22T08:22:45.106Z,10.48
2019-04-22T08:25:10.147Z,12.10
2019-04-22T08:27:43.620Z,11.10
2019-04-22T08:30:13.909Z,10.50
2019-04-22T08:35:26.767Z,14.37
2019-04-22T08:37:51.196Z,9.93
2019-04-22T08:40:20.683Z,10.48
2019-04-22T08:42:50.206Z,11.93
2019-04-22T08:47:41.928Z,13.03
2019-04-22T08:50:16.484Z,4.40
2019-04-22T08:52:52.036Z,11.33
2019-04-22T08:55:20.947Z,7.97
2019-04-22T09:00:13.010Z,11.17
2019-04-22T09:02:51.550Z,11.70
2019-04-22T09:05:35.916Z,6.17
2019-04-22T09:07:48.605Z,8.90
2019-04-22T09:10:17.128Z,6.43
2019-04-22T09:12:57.907Z,7.62
2019-04-22T09:15:20.722Z,4.10
2019-04-22T09:20:20.736Z,6.27
2019-04-22T09:22:53.706Z,6.10
2019-04-22T09:25:16.954Z,4.63
2019-04-22T09:27:52.569Z,7.00
2019-04-22T09:32:55.760Z,5.20
2019-04-22T09:35:30.321Z,7.10
2019-04-22T09:38:00.270Z,5.17
2019-04-22T09:40:34.633Z,5.37
2019-04-22T09:42:50.649Z,6.62
2019-04-22T09:45:21.631Z,5.70
2019-04-22T09:50:40.432Z,5.00
2019-04-22T09:53:08.702Z,4.65
2019-04-22T09:55:34.478Z,7.87
2019-04-22T09:58:03.126Z,7.30
2019-04-22T10:00:43.063Z,6.77
2019-04-22T10:03:08.499Z,5.72
2019-04-22T10:05:41.090Z,4.97
2019-04-22T10:08:22.223Z,8.13
2019-04-22T10:10:41.759Z,7.70
2019-04-22T10:13:12.639Z,5.92
2019-04-22T10:15:40.537Z,6.40
2019-04-22T10:18:09.732Z,6.78
2019-04-22T10:20:44.252Z,4.95
2019-04-22T10:23:17.704Z,5.63
2019-04-22T10:25:46.068Z,4.00
2019-04-22T10:28:14.770Z,6.97
2019-04-22T10:30:47.073Z,6.28
2019-04-22T10:33:04.608Z,6.03
2019-04-22T10:35:19.945Z,5.37
2019-04-22T10:37:48.155Z,5.37
2019-04-22T10:40:23.650Z,4.12
2019-04-22T10:42:53.454Z,6.67
2019-04-22T10:45:22.241Z,5.83
2019-04-22T10:47:52.261Z,6.97
2019-04-22T10:50:22.688Z,6.63
2019-04-22T10:52:51.325Z,5.37
2019-04-22T10:55:21.217Z,7.13
2019-04-22T10:57:50.723Z,4.40
2019-04-22T11:00:19.819Z,6.77
2019-04-22T11:02:49.651Z,3.40
2019-04-22T11:05:19.830Z,4.37
2019-04-22T11:07:53.797Z,3.87
2019-04-22T11:10:35.503Z,4.73
2019-04-22T11:12:49.480Z,6.30
2019-04-22T11:15:18.219Z,5.50
2019-04-22T11:17:49.383Z,5.85
2019-04-22T11:20:19.729Z,3.20
2019-04-22T11:22:48.952Z,2.30
2019-04-22T11:25:18.059Z,5.23
2019-04-22T11:27:47.224Z,3.37
2019-04-22T11:30:20.006Z,5.55
2019-04-22T11:32:48.584Z,5.00
2019-04-22T11:35:17.638Z,5.55
2019-04-22T11:37:46.579Z,2.00
2019-04-22T11:40:24.396Z,5.07
2019-04-22T11:42:48.100Z,3.27
2019-04-22T11:45:17.484Z,1.77
2019-04-22T11:47:47.477Z,1.87
2019-04-22T11:50:17.744Z,5.00
2019-04-22T11:52:46.968Z,3.33
2019-04-22T11:55:17.065Z,1.60
2019-04-22T11:57:45.805Z,4.53
2019-04-22T12:00:16.930Z,9.18
2019-04-22T12:02:47.063Z,5.85
2019-04-22T12:05:17.509Z,3.52
2019-04-22T12:07:46.973Z,3.77
2019-04-22T12:10:28.624Z,7.33
2019-04-22T12:12:48.348Z,5.30
2019-04-22T12:15:17.101Z,5.07
2019-04-22T12:17:46.214Z,3.08
2019-04-22T12:20:16.520Z,4.83
2019-04-22T12:22:47.287Z,2.10
2019-04-22T12:25:30.010Z,1.92
2019-04-22T12:27:47.288Z,2.52
2019-04-22T12:30:16.810Z,3.37
2019-04-22T12:32:45.619Z,4.67
2019-04-22T12:35:15.641Z,6.90
2019-04-22T12:37:52.932Z,5.67
2019-04-22T12:40:29.413Z,4.78
2019-04-22T12:42:45.088Z,3.37
2019-04-22T12:45:14.365Z,4.42
2019-04-22T12:47:44.141Z,5.57
2019-04-22T12:50:20.501Z,2.63
2019-04-22T12:52:50.925Z,1.55
2019-04-22T12:55:17.316Z,8.43
2019-04-22T12:57:46.429Z,4.87
2019-04-22T13:00:17.544Z,5.67
2019-04-22T13:02:47.334Z,5.20
2019-04-22T13:05:16.377Z,4.53
2019-04-22T13:07:45.017Z,8.93
2019-04-22T13:10:14.074Z,10.77
2019-04-22T13:12:42.845Z,1.50
2019-04-22T13:15:11.849Z,6.43
2019-04-22T13:17:42.065Z,3.58
2019-04-22T13:20:13.182Z,3.63
2019-04-22T13:22:41.176Z,1.20
2019-04-22T13:25:10.449Z,6.35
2019-04-22T13:27:39.336Z,3.27
2019-04-22T13:30:10.333Z,3.80
2019-04-22T13:32:40.680Z,7.70
2019-04-22T13:35:10.760Z,5.67
2019-04-22T13:37:41.006Z,4.87
2019-04-22T13:40:11.000Z,6.33
2019-04-22T13:42:40.732Z,5.28
2019-04-22T13:45:11.635Z,8.13
2019-04-22T13:48:00.510Z,2.35
2019-04-22T13:50:44.031Z,4.57
2019-04-22T13:53:23.342Z,3.03
2019-04-22T13:55:43.750Z,7.93
2019-04-22T13:57:56.673Z,2.98
2019-04-22T14:00:16.161Z,2.60
2019-04-22T14:03:04.623Z,11.15
2019-04-22T14:05:34.950Z,5.47
2019-04-22T14:08:04.854Z,2.83
2019-04-22T14:10:34.455Z,4.25
2019-04-22T14:13:03.846Z,5.37
2019-04-22T14:15:33.872Z,4.62
2019-04-22T14:18:03.035Z,4.37
2019-04-22T14:20:33.083Z,7.10
2019-04-22T14:23:04.040Z,6.30
2019-04-22T14:25:32.654Z,7.83
2019-04-22T14:28:07.412Z,2.95
2019-04-22T14:30:32.662Z,7.27
2019-04-22T14:33:02.717Z,5.72
2019-04-22T14:35:31.913Z,8.03
2019-04-22T14:38:01.446Z,4.47
2019-04-22T14:40:31.012Z,5.80
2019-04-22T14:43:25.095Z,4.15
2019-04-22T14:46:05.462Z,5.83
2019-04-22T14:48:28.658Z,2.77
2019-04-22T14:50:51.390Z,3.67
2019-04-22T14:53:20.767Z,3.90
2019-04-22T14:55:36.703Z,1.10
2019-04-22T14:58:04.771Z,4.37
2019-04-22T15:00:33.935Z,3.80
2019-04-22T15:03:03.877Z,9.10
2019-04-22T15:05:32.453Z,4.45
2019-04-22T15:08:01.332Z,6.73
2019-04-22T15:10:31.820Z,5.28
2019-04-22T15:13:02.967Z,4.20
2019-04-22T15:15:52.834Z,1.83
2019-04-22T15:18:39.973Z,4.20
2019-04-22T15:21:14.684Z,6.05
2019-04-22T15:23:44.558Z,4.70
2019-04-22T15:26:14.623Z,8.87
2019-04-22T15:28:43.341Z,3.53
2019-04-22T15:31:13.170Z,5.00
2019-04-22T15:33:45.224Z,8.63
2019-04-22T15:36:12.284Z,3.27
2019-04-22T15:38:42.236Z,2.83
2019-04-22T15:41:12.377Z,6.50
2019-04-22T15:43:41.570Z,9.83
2019-04-22T15:46:11.637Z,8.10
2019-04-22T15:48:42.058Z,4.50
2019-04-22T15:51:11.358Z,3.17
2019-04-22T15:53:40.348Z,1.63
2019-04-22T15:56:10.430Z,3.97
2019-04-22T15:58:39.661Z,4.27
2019-04-22T16:01:15.111Z,8.43
2019-04-22T16:03:38.869Z,4.37
2019-04-22T16:06:08.298Z,4.65
2019-04-22T16:08:39.001Z,10.10
2019-04-22T16:11:07.223Z,3.72
2019-04-22T16:13:38.177Z,3.33
2019-04-22T16:16:06.984Z,2.58
2019-04-22T16:18:36.155Z,4.13
2019-04-22T16:21:04.966Z,3.57
2019-04-22T16:23:58.598Z,1.13
2019-04-22T16:26:44.816Z,3.70
2019-04-22T16:29:15.849Z,5.55
2019-04-22T16:31:45.292Z,4.37
2019-04-22T16:34:15.347Z,4.17
2019-04-22T16:36:44.942Z,4.25
2019-04-22T16:39:15.113Z,3.17
2019-04-22T16:41:44.565Z,4.40
2019-04-22T16:44:14.387Z,4.03
2019-04-22T16:46:43.631Z,10.85
2019-04-22T16:49:13.815Z,4.60
2019-04-22T16:51:42.696Z,5.50
2019-04-22T16:54:13.772Z,2.87
2019-04-22T16:56:43.758Z,5.47
2019-04-22T16:59:12.913Z,6.30
2019-04-22T17:02:01.099Z,1.90
2019-04-22T17:04:40.894Z,5.37
2019-04-22T17:07:13.911Z,3.67
2019-04-22T17:09:43.814Z,5.62
2019-04-22T17:12:13.877Z,2.73
2019-04-22T17:14:50.403Z,5.37
2019-04-22T17:17:12.905Z,3.40
2019-04-22T17:19:41.713Z,2.83
2019-04-22T17:22:11.409Z,8.07
2019-04-22T17:24:41.495Z,6.05
2019-04-22T17:27:10.696Z,3.37
2019-04-22T17:29:40.896Z,4.33
2019-04-22T17:32:15.257Z,4.30
2019-04-22T17:34:41.246Z,4.08
2019-04-22T17:37:12.691Z,4.08
2019-04-22T17:39:47.813Z,3.52
2019-04-22T17:42:30.886Z,6.15
2019-04-22T17:45:33.854Z,2.87
2019-04-22T17:48:23.932Z,8.48
2019-04-22T17:50:59.956Z,4.67
2019-04-22T17:53:27.928Z,4.55
2019-04-22T17:55:58.677Z,5.63
2019-04-22T17:58:25.641Z,5.78
2019-04-22T18:01:00.785Z,4.73
2019-04-22T18:03:20.378Z,5.97
2019-04-22T18:05:43.833Z,3.73
2019-04-22T18:08:27.114Z,6.83
2019-04-22T18:10:56.126Z,6.62
2019-04-22T18:13:36.287Z,3.70
2019-04-22T18:15:52.991Z,6.47
2019-04-22T18:18:30.383Z,5.40
2019-04-22T18:20:51.588Z,9.08
2019-04-22T18:23:12.730Z,5.65
2019-04-22T18:26:00.417Z,6.80
2019-04-22T18:28:30.382Z,7.25
2019-04-22T18:30:53.016Z,4.07
2019-04-22T18:33:31.617Z,3.63
2019-04-22T18:35:58.771Z,7.20
2019-04-22T18:38:42.253Z,7.75
2019-04-22T18:40:59.038Z,5.10
2019-04-22T18:43:35.297Z,5.70
2019-04-22T18:46:06.075Z,4.78
2019-04-22T18:48:32.032Z,6.45
2019-04-22T18:51:13.227Z,10.85
2019-04-22T18:54:02.195Z,5.87
2019-04-22T18:56:34.632Z,6.28
2019-04-22T18:58:53.776Z,3.20
2019-04-22T19:01:13.547Z,7.80
2019-04-22T19:03:52.813Z,7.97
2019-04-22T19:06:44.771Z,3.47
2019-04-22T19:09:05.302Z,9.63
2019-04-22T19:11:40.915Z,5.47
2019-04-22T19:14:10.795Z,6.37
2019-04-22T19:16:36.567Z,8.70
2019-04-22T19:19:25.891Z,3.20
2019-04-22T19:21:36.559Z,12.90
2019-04-22T19:24:05.986Z,4.13
2019-04-22T19:26:44.347Z,5.60
2019-04-22T19:29:05.621Z,6.03
2019-04-22T19:31:34.532Z,5.67
2019-04-22T19:34:03.273Z,4.87
2019-04-22T19:36:44.699Z,3.87
2019-04-22T19:39:08.017Z,9.28
2019-04-22T19:41:55.982Z,9.60
2019-04-22T19:44:08.705Z,6.73
2019-04-22T19:46:34.394Z,8.17
2019-04-22T19:49:12.069Z,8.93
2019-04-22T19:51:45.884Z,8.53
2019-04-22T19:54:09.383Z,4.80
2019-04-22T19:56:28.281Z,7.45
2019-04-22T19:59:07.406Z,6.17
2019-04-22T20:02:00.631Z,6.37
2019-04-22T20:04:52.701Z,4.90
2019-04-22T20:07:17.817Z,5.43
2019-04-22T20:09:55.632Z,6.57
2019-04-22T20:12:21.881Z,5.40
2019-04-22T20:14:49.413Z,5.87
2019-04-22T20:17:29.023Z,6.97
2019-04-22T20:19:57.796Z,7.03
2019-04-22T20:22:17.833Z,4.70
2019-04-22T20:24:43.547Z,6.00
2019-04-22T20:27:22.489Z,4.57
2019-04-22T20:29:56.362Z,7.65
2019-04-22T20:32:23.534Z,4.10
2019-04-22T20:34:59.559Z,5.87
2019-04-22T20:37:34.333Z,7.47
2019-04-22T20:39:58.665Z,5.90
2019-04-22T20:42:39.012Z,5.70
2019-04-22T20:45:01.855Z,8.70
2019-04-22T20:47:23.738Z,2.13
2019-04-22T20:49:55.056Z,7.83
2019-04-22T20:52:36.489Z,6.12
2019-04-22T20:54:55.993Z,4.42
2019-04-22T20:57:31.963Z,4.90
2019-04-22T20:59:51.206Z,5.53
2019-04-22T21:02:25.141Z,6.13
2019-04-22T21:04:48.066Z,7.17
2019-04-22T21:07:23.780Z,7.03
2019-04-22T21:09:55.175Z,3.90
2019-04-22T21:12:21.129Z,7.83
2019-04-22T21:15:00.451Z,9.67
2019-04-22T21:17:31.207Z,4.90
2019-04-22T21:20:06.918Z,7.47
2019-04-22T21:22:35.743Z,8.87
2019-04-22T21:24:54.963Z,5.43
2019-04-22T21:27:35.442Z,3.27
2019-04-22T21:29:52.184Z,5.97
2019-04-22T21:32:31.210Z,9.53
2019-04-22T21:35:24.620Z,6.57
2019-04-22T21:37:55.213Z,0.75
2019-04-22T21:39:56.849Z,8.45
2019-04-22T21:42:28.562Z,1.50
2019-04-22T21:44:59.564Z,4.30
2019-04-22T21:47:36.165Z,5.33
2019-04-22T21:50:26.007Z,5.97
2019-04-22T21:52:34.996Z,4.55
2019-04-22T21:55:07.532Z,4.75
2019-04-22T21:57:57.285Z,7.10
2019-04-22T22:00:31.254Z,3.50
2019-04-22T22:02:58.530Z,7.17
2019-04-22T22:05:18.971Z,6.72
2019-04-22T22:07:34.893Z,2.65
2019-04-22T22:10:24.286Z,5.73
2019-04-22T22:12:56.005Z,4.10
2019-04-22T22:15:24.711Z,3.30
2019-04-22T22:17:52.733Z,6.67
2019-04-22T22:20:22.224Z,4.60
2019-04-22T22:23:00.608Z,5.50
2019-04-22T22:25:26.463Z,5.67
2019-04-22T22:27:53.385Z,2.03
2019-04-22T22:30:44.667Z,5.70
2019-04-22T22:33:02.833Z,2.72
2019-04-22T22:35:29.578Z,6.47
2019-04-22T22:37:55.232Z,1.60
2019-04-22T22:40:14.967Z,1.60
2019-04-22T22:42:43.697Z,2.57
2019-04-22T22:45:21.508Z,2.60
2019-04-22T22:48:05.695Z,4.15
2019-04-22T22:50:27.379Z,4.53
2019-04-22T22:53:17.225Z,10.33
2019-04-22T22:55:31.402Z,5.27
2019-04-22T22:58:08.208Z,8.65
2019-04-22T23:00:33.832Z,3.87
2019-04-22T23:03:23.233Z,5.05
2019-04-22T23:05:37.743Z,3.20
2019-04-22T23:08:09.591Z,0.82
2019-04-22T23:10:44.486Z,5.17
2019-04-22T23:13:25.766Z,7.47
2019-04-22T23:15:33.881Z,5.60
2019-04-22T23:17:45.953Z,6.10
2019-04-22T23:20:18.492Z,3.80
2019-04-22T23:23:09.377Z,4.93
2019-04-22T23:25:40.110Z,4.73
2019-04-22T23:28:22.465Z,2.72
2019-04-22T23:31:05.510Z,7.05
2019-04-22T23:33:42.430Z,4.60
2019-04-22T23:36:22.856Z,3.40
2019-04-22T23:39:02.388Z,2.93
2019-04-22T23:44:10.015Z,2.45
2019-04-22T23:46:42.656Z,3.33
2019-04-22T23:49:12.481Z,4.05
2019-04-22T23:51:55.533Z,3.47
2019-04-22T23:54:40.636Z,2.70
2019-04-22T23:56:47.978Z,3.00
2019-04-22T23:59:38.381Z,3.63
